Terminal Aerodrome Forecast
Issued by NWS

Home | Current Version | Previous Version | Text Only | Print | Product List | Glossary On
Versions: 1 2 3 4 5 6 7 8 9 10 11 12 13 14 15 16 17 18
000
FTUS46 KSTO 070500
TAFMHR
TAF
KMHR 070531Z 0706/0806 VRB05KT P6SM FEW080
     FM071200 VRB05KT P6SM VCSH BKN070
     FM071700 34010KT P6SM SCT100 BKN200
     FM080300 VRB05KT P6SM BKN250=

USA.gov is the U.S. government's official web portal to all federal, state and local government web resources and services.